createdAt,value
2023-05-16T00:00:49.010Z,14.55
2023-05-16T00:03:16.236Z,14.87
2023-05-16T00:05:43.465Z,14.93
2023-05-16T00:08:10.592Z,15.00
2023-05-16T00:10:37.837Z,14.71
2023-05-16T00:13:05.027Z,14.47
2023-05-16T00:15:32.183Z,14.47
2023-05-16T00:17:59.852Z,14.20
2023-05-16T00:20:28.850Z,13.90
2023-05-16T00:22:56.398Z,14.39
2023-05-16T00:25:23.564Z,13.98
2023-05-16T00:27:50.845Z,13.58
2023-05-16T00:30:18.057Z,13.57
2023-05-16T00:32:45.235Z,13.88
2023-05-16T00:35:12.729Z,14.14
2023-05-16T00:37:40.259Z,14.22
2023-05-16T00:40:08.033Z,14.21
2023-05-16T00:42:36.648Z,14.44
2023-05-16T00:45:04.957Z,14.55
2023-05-16T00:47:32.740Z,14.40
2023-05-16T00:50:00.251Z,14.42
2023-05-16T00:52:27.830Z,14.22
2023-05-16T00:54:55.749Z,13.95
2023-05-16T00:57:23.885Z,14.02
2023-05-16T00:59:51.598Z,14.26
2023-05-16T01:02:18.843Z,14.22
2023-05-16T01:04:48.537Z,14.02
2023-05-16T01:07:15.775Z,13.72
2023-05-16T01:09:42.900Z,13.66
2023-05-16T01:12:29.044Z,13.83
2023-05-16T01:15:21.009Z,13.89
2023-05-16T01:18:16.255Z,14.24
2023-05-16T01:20:48.349Z,14.41
2023-05-16T01:23:37.188Z,14.83
2023-05-16T01:26:18.808Z,14.72
2023-05-16T01:28:47.878Z,14.48
2023-05-16T01:31:15.242Z,14.73
2023-05-16T01:33:43.208Z,14.91
2023-05-16T01:36:26.058Z,14.93
2023-05-16T01:39:08.602Z,15.05
2023-05-16T01:41:39.085Z,15.07
2023-05-16T01:44:16.839Z,15.05
2023-05-16T01:46:47.650Z,15.35
2023-05-16T01:49:24.545Z,15.34
2023-05-16T01:52:11.609Z,14.99
2023-05-16T01:54:45.447Z,14.98
2023-05-16T01:57:13.990Z,15.04
2023-05-16T01:59:43.147Z,15.11
2023-05-16T02:02:10.771Z,15.28
2023-05-16T02:04:38.703Z,15.41
2023-05-16T02:07:06.293Z,15.52
2023-05-16T02:09:33.392Z,15.71
2023-05-16T02:12:00.940Z,15.67
2023-05-16T02:14:29.665Z,15.77
2023-05-16T02:16:57.399Z,15.85
2023-05-16T02:19:24.558Z,15.75
2023-05-16T02:21:51.728Z,15.62
2023-05-16T02:24:18.896Z,15.82
2023-05-16T02:26:46.080Z,15.74
2023-05-16T02:29:13.134Z,15.93
2023-05-16T02:31:40.362Z,15.32
2023-05-16T02:34:07.606Z,15.44
2023-05-16T02:36:36.213Z,15.62
2023-05-16T02:39:04.309Z,15.91
2023-05-16T02:41:31.973Z,15.77
2023-05-16T02:43:59.073Z,15.22
2023-05-16T02:46:31.372Z,14.48
2023-05-16T02:48:58.913Z,14.69
2023-05-16T02:51:28.441Z,14.98
2023-05-16T02:53:59.990Z,15.26
2023-05-16T02:56:27.852Z,15.66
2023-05-16T02:58:56.246Z,15.50
2023-05-16T03:01:23.550Z,14.93
2023-05-16T03:03:51.304Z,14.57
2023-05-16T03:06:18.669Z,14.56
2023-05-16T03:08:45.708Z,14.59
2023-05-16T03:11:12.876Z,14.66
2023-05-16T03:13:42.347Z,15.26
2023-05-16T03:16:09.466Z,15.64
2023-05-16T03:18:36.833Z,15.59
2023-05-16T03:21:04.041Z,15.37
2023-05-16T03:23:31.119Z,15.60
2023-05-16T03:25:58.282Z,15.41
2023-05-16T03:28:25.793Z,15.08
2023-05-16T03:30:55.421Z,14.76
2023-05-16T03:33:23.780Z,15.05
2023-05-16T03:35:52.240Z,14.91
2023-05-16T03:38:19.387Z,14.85
2023-05-16T03:40:46.642Z,14.90
2023-05-16T03:43:13.696Z,15.05
2023-05-16T03:45:40.866Z,14.95
2023-05-16T03:48:09.418Z,14.71
2023-05-16T03:50:38.926Z,14.67
2023-05-16T03:53:08.224Z,14.65
2023-05-16T03:55:35.293Z,14.67
2023-05-16T03:58:02.774Z,14.83
2023-05-16T04:00:30.118Z,15.37
2023-05-16T04:02:57.307Z,16.23
2023-05-16T04:05:24.486Z,16.46
2023-05-16T04:07:51.530Z,16.70
2023-05-16T04:10:19.033Z,16.93
2023-05-16T04:12:46.251Z,16.70
2023-05-16T04:15:13.378Z,17.15
2023-05-16T04:17:40.561Z,16.82
2023-05-16T04:20:07.979Z,16.96
2023-05-16T04:22:35.731Z,16.98
2023-05-16T04:25:02.840Z,17.17
2023-05-16T04:27:30.774Z,16.77
2023-05-16T04:29:59.511Z,16.39
2023-05-16T04:32:29.105Z,16.36
2023-05-16T04:34:56.490Z,16.08
2023-05-16T04:37:23.588Z,15.56
2023-05-16T04:39:51.639Z,15.29
2023-05-16T04:42:18.767Z,15.19
2023-05-16T04:44:48.011Z,15.70
2023-05-16T04:47:15.381Z,16.09
2023-05-16T04:49:42.510Z,16.26
2023-05-16T04:52:10.123Z,16.24
2023-05-16T04:54:39.151Z,15.99
2023-05-16T04:57:06.493Z,15.79
2023-05-16T04:59:33.646Z,15.87
2023-05-16T05:02:00.849Z,15.92
2023-05-16T05:04:27.951Z,16.15
2023-05-16T05:06:55.098Z,16.23
2023-05-16T05:09:22.163Z,16.16
2023-05-16T05:11:49.230Z,16.20
2023-05-16T05:14:16.262Z,16.32
2023-05-16T05:16:43.372Z,16.13
2023-05-16T05:19:10.594Z,16.22
2023-05-16T05:21:37.870Z,16.40
2023-05-16T05:24:05.465Z,16.07
2023-05-16T05:26:32.662Z,16.06
2023-05-16T05:29:05.332Z,16.47
2023-05-16T05:31:34.896Z,16.22
2023-05-16T05:34:03.547Z,16.22
2023-05-16T05:36:31.316Z,16.09
2023-05-16T05:38:58.522Z,16.40
2023-05-16T05:41:26.526Z,16.25
2023-05-16T05:43:53.601Z,16.44
2023-05-16T05:46:20.718Z,16.53
2023-05-16T05:48:48.004Z,16.31
2023-05-16T05:51:15.070Z,16.33
2023-05-16T05:53:42.873Z,16.87
2023-05-16T05:56:10.046Z,17.22
2023-05-16T05:58:37.163Z,16.92
2023-05-16T06:01:04.356Z,17.30
2023-05-16T06:03:31.890Z,17.19
2023-05-16T06:05:59.218Z,17.28
2023-05-16T06:08:26.383Z,17.34
2023-05-16T06:10:54.332Z,17.19
2023-05-16T06:13:21.662Z,17.08
2023-05-16T06:15:52.818Z,17.33
2023-05-16T06:18:20.760Z,17.23
2023-05-16T06:20:48.002Z,17.05
2023-05-16T06:23:15.051Z,16.95
2023-05-16T06:25:42.126Z,16.78
2023-05-16T06:28:09.426Z,16.85
2023-05-16T06:30:36.451Z,17.14
2023-05-16T06:33:03.660Z,17.49
2023-05-16T06:35:30.973Z,17.65
2023-05-16T06:37:58.049Z,17.93
2023-05-16T06:40:25.109Z,18.10
2023-05-16T06:42:52.215Z,18.17
2023-05-16T06:45:19.446Z,18.18
2023-05-16T06:47:46.592Z,18.08
2023-05-16T06:50:13.987Z,18.38
2023-05-16T06:52:42.044Z,18.49
2023-05-16T06:55:09.776Z,18.60
2023-05-16T06:57:36.924Z,18.66
2023-05-16T07:00:04.707Z,18.35
2023-05-16T07:02:32.153Z,17.93
2023-05-16T07:04:59.375Z,17.85
2023-05-16T07:07:26.708Z,17.79
2023-05-16T07:09:54.362Z,17.72
2023-05-16T07:12:21.444Z,18.00
2023-05-16T07:14:48.648Z,18.65
2023-05-16T07:17:16.483Z,18.20
2023-05-16T07:19:43.647Z,17.98
2023-05-16T07:22:12.387Z,17.66
2023-05-16T07:24:39.530Z,17.76
2023-05-16T07:27:06.974Z,17.91
2023-05-16T07:29:34.172Z,18.28
2023-05-16T07:32:01.485Z,18.52
2023-05-16T07:34:28.672Z,18.66
2023-05-16T07:36:55.845Z,18.67
2023-05-16T07:39:23.033Z,18.83
2023-05-16T07:41:50.318Z,18.97
2023-05-16T07:44:17.445Z,19.03
2023-05-16T07:46:45.225Z,18.57
2023-05-16T07:49:12.682Z,18.30
2023-05-16T07:51:39.995Z,18.15
2023-05-16T07:54:07.522Z,18.51
2023-05-16T07:56:34.929Z,18.52
2023-05-16T07:59:02.244Z,18.76
2023-05-16T08:01:29.349Z,18.78
2023-05-16T08:03:56.598Z,18.36
2023-05-16T08:06:23.936Z,18.33
2023-05-16T08:08:51.162Z,18.31
2023-05-16T08:11:22.565Z,18.15
2023-05-16T08:13:50.380Z,18.43
2023-05-16T08:16:17.703Z,18.37
2023-05-16T08:18:44.993Z,19.04
2023-05-16T08:21:13.682Z,18.22
2023-05-16T08:23:41.064Z,18.86
2023-05-16T08:26:08.263Z,19.04
2023-05-16T08:28:35.595Z,19.10
2023-05-16T08:31:02.842Z,18.94
2023-05-16T08:33:30.044Z,18.90
2023-05-16T08:35:57.248Z,18.88
2023-05-16T08:38:24.390Z,19.18
2023-05-16T08:40:51.505Z,19.42
2023-05-16T08:43:18.784Z,19.21
2023-05-16T08:45:46.260Z,19.46
2023-05-16T08:48:16.073Z,19.93
2023-05-16T08:50:44.152Z,19.68
2023-05-16T08:53:12.551Z,19.40
2023-05-16T08:55:41.771Z,19.62
2023-05-16T08:58:09.434Z,19.90
2023-05-16T09:00:36.593Z,20.31
2023-05-16T09:03:05.215Z,20.48
2023-05-16T09:05:33.286Z,20.42
2023-05-16T09:08:00.692Z,20.58
2023-05-16T09:10:27.956Z,20.54
2023-05-16T09:12:55.054Z,20.34
2023-05-16T09:15:22.167Z,20.29
2023-05-16T09:17:49.474Z,20.58
2023-05-16T09:20:22.725Z,20.21
2023-05-16T09:22:57.691Z,20.44
2023-05-16T09:27:57.590Z,20.79
2023-05-16T09:30:29.559Z,20.92
2023-05-16T09:32:56.840Z,21.27
2023-05-16T09:35:39.743Z,20.97
2023-05-16T09:38:17.976Z,21.27
2023-05-16T09:40:46.173Z,21.41
2023-05-16T09:43:17.416Z,21.39
2023-05-16T09:45:49.292Z,21.55
2023-05-16T09:48:18.360Z,21.26
2023-05-16T09:50:54.557Z,20.63
2023-05-16T09:53:29.819Z,20.94
2023-05-16T09:56:17.288Z,19.82
2023-05-16T09:58:47.470Z,19.77
2023-05-16T10:01:14.589Z,19.66
2023-05-16T10:03:43.283Z,19.74
2023-05-16T10:06:12.871Z,19.18
2023-05-16T10:08:43.485Z,18.81
2023-05-16T10:11:11.357Z,19.10
2023-05-16T10:13:39.833Z,19.34
2023-05-16T10:16:13.063Z,19.19
2023-05-16T10:18:44.573Z,20.00
2023-05-16T10:21:15.864Z,20.06
2023-05-16T10:23:44.272Z,20.19
2023-05-16T10:26:14.347Z,20.57
2023-05-16T10:28:42.013Z,19.95
2023-05-16T10:31:11.278Z,19.47
2023-05-16T10:33:39.977Z,19.72
2023-05-16T10:36:09.414Z,19.93
2023-05-16T10:38:38.016Z,20.27
2023-05-16T10:41:06.008Z,20.73
2023-05-16T10:43:33.924Z,20.41
2023-05-16T10:46:12.157Z,20.76
2023-05-16T10:48:40.998Z,21.00
2023-05-16T10:51:34.566Z,21.31
2023-05-16T10:54:08.166Z,21.10
2023-05-16T10:56:35.769Z,21.93
2023-05-16T10:59:04.864Z,21.47
2023-05-16T11:01:36.022Z,21.50
2023-05-16T11:04:06.738Z,21.49
2023-05-16T11:06:43.506Z,21.38
2023-05-16T11:09:16.458Z,21.54
2023-05-16T11:11:52.956Z,20.94
2023-05-16T11:14:23.431Z,20.91
2023-05-16T11:17:02.189Z,21.40
2023-05-16T11:19:55.432Z,20.47
2023-05-16T11:22:27.507Z,21.07
2023-05-16T11:25:03.039Z,20.95
2023-05-16T11:27:45.604Z,20.00
2023-05-16T11:30:15.732Z,19.62
2023-05-16T11:32:45.140Z,19.57
2023-05-16T11:35:15.184Z,19.25
2023-05-16T11:37:44.277Z,19.20
2023-05-16T11:40:13.784Z,18.86
2023-05-16T11:42:43.736Z,19.19
2023-05-16T11:45:25.820Z,19.47
2023-05-16T11:47:53.306Z,19.61
2023-05-16T11:50:22.435Z,19.92
2023-05-16T11:52:54.816Z,20.33
2023-05-16T11:55:40.323Z,20.42
2023-05-16T11:58:09.061Z,20.94
2023-05-16T12:00:36.428Z,21.06
2023-05-16T12:03:06.190Z,21.34
2023-05-16T12:05:35.419Z,21.42
2023-05-16T12:08:05.827Z,21.38
2023-05-16T12:10:38.946Z,21.12
2023-05-16T12:13:06.253Z,21.19
2023-05-16T12:15:33.764Z,21.26
2023-05-16T12:18:01.375Z,21.10
2023-05-16T12:20:28.632Z,20.87
2023-05-16T12:22:58.618Z,20.66
2023-05-16T12:25:30.229Z,21.29
2023-05-16T12:28:00.121Z,21.06
2023-05-16T12:30:29.764Z,21.14
2023-05-16T12:33:05.056Z,20.82
2023-05-16T12:35:37.688Z,21.01
2023-05-16T12:38:05.845Z,20.95
2023-05-16T12:40:33.237Z,20.62
2023-05-16T12:43:00.561Z,21.05
2023-05-16T12:45:28.468Z,20.62
2023-05-16T12:47:55.780Z,20.79
2023-05-16T12:50:23.209Z,20.83
2023-05-16T12:52:55.522Z,20.50
2023-05-16T12:55:23.247Z,20.19
2023-05-16T12:57:51.277Z,19.79
2023-05-16T13:00:20.895Z,20.01
2023-05-16T13:02:48.830Z,19.94
2023-05-16T13:05:18.082Z,19.58
2023-05-16T13:07:45.407Z,19.53
2023-05-16T13:10:12.847Z,20.09
2023-05-16T13:12:41.079Z,19.24
2023-05-16T13:15:10.622Z,18.67
2023-05-16T13:17:39.172Z,19.07
2023-05-16T13:20:10.186Z,19.19
2023-05-16T13:22:37.725Z,19.59
2023-05-16T13:25:06.505Z,18.94
2023-05-16T13:27:34.392Z,18.86
2023-05-16T13:30:01.716Z,19.19
2023-05-16T13:32:29.064Z,18.77
2023-05-16T13:34:56.840Z,18.68
2023-05-16T13:37:24.671Z,18.54
2023-05-16T13:39:55.663Z,18.36
2023-05-16T13:42:22.909Z,18.37
2023-05-16T13:44:53.056Z,18.51
2023-05-16T13:47:20.086Z,18.66
2023-05-16T13:49:47.851Z,18.41
2023-05-16T13:52:15.043Z,18.50
2023-05-16T13:54:42.201Z,18.46
2023-05-16T13:57:09.306Z,18.32
2023-05-16T14:02:06.397Z,18.53
2023-05-16T14:04:33.587Z,18.62
2023-05-16T14:07:00.662Z,18.62
2023-05-16T14:09:27.715Z,18.29
2023-05-16T14:11:54.754Z,18.52
2023-05-16T14:14:21.803Z,18.58
2023-05-16T14:16:49.068Z,18.50
2023-05-16T14:19:18.982Z,18.13
2023-05-16T14:21:46.769Z,17.84
2023-05-16T14:24:13.915Z,17.68
2023-05-16T14:26:41.452Z,17.65
2023-05-16T14:29:08.556Z,17.58
2023-05-16T14:31:36.698Z,17.91
2023-05-16T14:34:04.315Z,18.01
2023-05-16T14:36:32.023Z,17.68
2023-05-16T14:38:59.250Z,17.53
2023-05-16T14:41:26.719Z,17.35
2023-05-16T14:43:53.724Z,17.72
2023-05-16T14:46:20.984Z,17.50
2023-05-16T14:48:48.036Z,17.55
2023-05-16T14:51:15.618Z,17.28
2023-05-16T14:53:44.244Z,16.92
2023-05-16T14:56:13.271Z,16.96
2023-05-16T14:58:40.775Z,16.88
2023-05-16T15:01:07.876Z,16.83
2023-05-16T15:03:46.965Z,16.93
2023-05-16T15:06:21.262Z,16.84
2023-05-16T15:08:48.341Z,16.85
2023-05-16T15:11:15.333Z,16.73
2023-05-16T15:13:42.357Z,16.84
2023-05-16T15:16:09.454Z,16.53
2023-05-16T15:18:36.506Z,16.86
2023-05-16T15:21:04.190Z,16.45
2023-05-16T15:23:31.226Z,16.36
2023-05-16T15:25:58.330Z,16.35
2023-05-16T15:28:25.544Z,16.59
2023-05-16T15:30:52.549Z,16.65
2023-05-16T15:33:19.910Z,16.60
2023-05-16T15:35:47.158Z,16.78
2023-05-16T15:38:14.705Z,16.50
2023-05-16T15:40:41.736Z,16.44
2023-05-16T15:43:08.783Z,16.58
2023-05-16T15:45:39.407Z,16.35
2023-05-16T15:48:07.598Z,16.41
2023-05-16T15:50:34.987Z,16.48
2023-05-16T15:53:02.060Z,16.57
2023-05-16T15:55:29.323Z,16.38
2023-05-16T15:57:58.646Z,16.35
2023-05-16T16:00:26.255Z,16.38
2023-05-16T16:02:53.770Z,16.38
2023-05-16T16:05:20.953Z,16.53
2023-05-16T16:07:47.979Z,16.55
2023-05-16T16:10:15.217Z,16.52
2023-05-16T16:12:42.213Z,16.38
2023-05-16T16:15:12.380Z,16.55
2023-05-16T16:17:39.471Z,16.58
2023-05-16T16:20:07.006Z,16.62
2023-05-16T16:22:34.049Z,16.61
2023-05-16T16:25:01.093Z,16.66
2023-05-16T16:27:28.145Z,17.09
2023-05-16T16:29:55.210Z,17.56
2023-05-16T16:32:22.206Z,17.74
2023-05-16T16:34:49.563Z,17.80
2023-05-16T16:37:16.711Z,17.96
2023-05-16T16:39:43.760Z,18.24
2023-05-16T16:42:10.973Z,18.12
2023-05-16T16:44:38.007Z,18.01
2023-05-16T16:47:05.314Z,17.59
2023-05-16T16:49:32.742Z,17.43
2023-05-16T16:51:59.945Z,17.52
2023-05-16T16:54:28.257Z,17.69
2023-05-16T16:56:56.539Z,17.67
2023-05-16T16:59:23.675Z,17.57
2023-05-16T17:01:51.073Z,17.35
2023-05-16T17:04:18.311Z,17.47
2023-05-16T17:06:46.568Z,17.42
2023-05-16T17:09:18.071Z,17.85
2023-05-16T17:11:46.857Z,17.73
2023-05-16T17:14:14.943Z,17.61
2023-05-16T17:16:42.185Z,17.63
2023-05-16T17:19:10.219Z,17.49
2023-05-16T17:21:40.708Z,17.28
2023-05-16T17:24:08.251Z,17.46
2023-05-16T17:26:35.912Z,17.18
2023-05-16T17:29:05.177Z,17.54
2023-05-16T17:31:32.783Z,17.41
2023-05-16T17:33:59.874Z,17.51
2023-05-16T17:36:27.184Z,17.61
2023-05-16T17:38:54.514Z,17.56
2023-05-16T17:41:22.163Z,17.67
2023-05-16T17:43:50.005Z,17.76
2023-05-16T17:46:17.110Z,17.70
2023-05-16T17:48:44.334Z,17.37
2023-05-16T17:51:11.558Z,17.22
2023-05-16T17:53:39.325Z,17.60
2023-05-16T17:56:07.728Z,17.58
2023-05-16T17:58:34.895Z,16.97
2023-05-16T18:01:03.534Z,16.97
2023-05-16T18:03:30.723Z,16.83
2023-05-16T18:05:58.043Z,16.92
2023-05-16T18:08:25.394Z,17.01
2023-05-16T18:10:52.851Z,16.76
2023-05-16T18:13:20.879Z,16.62
2023-05-16T18:15:47.992Z,16.42
2023-05-16T18:18:15.103Z,16.26
2023-05-16T18:20:43.118Z,16.47
2023-05-16T18:23:10.190Z,16.19
2023-05-16T18:25:37.375Z,16.38
2023-05-16T18:28:04.720Z,16.44
2023-05-16T18:30:31.841Z,16.50
2023-05-16T18:32:59.938Z,16.50
2023-05-16T18:35:28.679Z,16.30
2023-05-16T18:37:56.122Z,16.85
2023-05-16T18:40:23.399Z,16.63
2023-05-16T18:42:51.019Z,16.49
2023-05-16T18:45:18.090Z,16.53
2023-05-16T18:47:45.235Z,16.63
2023-05-16T18:50:12.599Z,15.88
2023-05-16T18:52:40.761Z,16.15
2023-05-16T18:55:08.401Z,15.96
2023-05-16T18:57:35.558Z,15.96
2023-05-16T19:00:02.729Z,16.20
2023-05-16T19:02:41.011Z,16.12
2023-05-16T19:05:10.681Z,16.69
2023-05-16T19:07:38.046Z,16.63
2023-05-16T19:10:05.762Z,16.41
2023-05-16T19:12:32.808Z,16.61
2023-05-16T19:15:00.689Z,16.59
2023-05-16T19:17:27.902Z,16.83
2023-05-16T19:19:55.016Z,16.64
2023-05-16T19:22:22.149Z,16.13
2023-05-16T19:24:49.259Z,16.67
2023-05-16T19:27:16.352Z,16.80
2023-05-16T19:29:43.348Z,16.87
2023-05-16T19:32:10.893Z,16.62
2023-05-16T19:34:38.080Z,16.52
2023-05-16T19:37:05.606Z,16.09
2023-05-16T19:39:32.684Z,16.15
2023-05-16T19:42:07.073Z,15.79
2023-05-16T19:44:34.990Z,15.86
2023-05-16T19:47:02.308Z,15.96
2023-05-16T19:49:31.941Z,16.29
2023-05-16T19:51:59.055Z,16.52
2023-05-16T19:54:26.404Z,16.42
2023-05-16T19:56:53.557Z,15.96
2023-05-16T19:59:22.646Z,15.76
2023-05-16T20:01:49.811Z,15.88
2023-05-16T20:04:16.936Z,16.29
2023-05-16T20:06:44.243Z,16.29
2023-05-16T20:09:11.496Z,15.84
2023-05-16T20:11:38.694Z,15.66
2023-05-16T20:14:06.025Z,15.64
2023-05-16T20:16:33.136Z,15.79
2023-05-16T20:19:00.392Z,16.03
2023-05-16T20:21:27.494Z,16.05
2023-05-16T20:23:54.653Z,16.02
2023-05-16T20:26:22.575Z,15.76
2023-05-16T20:28:49.762Z,15.60
2023-05-16T20:31:16.913Z,15.58
2023-05-16T20:33:44.059Z,15.84
2023-05-16T20:36:11.386Z,15.86
2023-05-16T20:38:39.022Z,15.77
2023-05-16T20:41:06.042Z,15.82
2023-05-16T20:43:33.084Z,15.59
2023-05-16T20:46:00.337Z,15.68
2023-05-16T20:48:27.565Z,16.00
2023-05-16T20:50:55.330Z,15.92
2023-05-16T20:53:22.644Z,15.95
2023-05-16T20:55:49.715Z,15.74
2023-05-16T20:58:16.842Z,15.90
2023-05-16T21:00:44.004Z,16.14
2023-05-16T21:03:12.622Z,15.96
2023-05-16T21:05:39.977Z,15.99
2023-05-16T21:08:07.697Z,15.61
2023-05-16T21:10:34.803Z,15.77
2023-05-16T21:13:01.953Z,15.82
2023-05-16T21:15:29.211Z,15.60
2023-05-16T21:17:56.497Z,15.80
2023-05-16T21:20:23.601Z,15.89
2023-05-16T21:22:50.635Z,16.03
2023-05-16T21:25:17.840Z,15.73
2023-05-16T21:27:44.857Z,16.03
2023-05-16T21:30:12.526Z,16.11
2023-05-16T21:32:39.598Z,16.46
2023-05-16T21:35:07.045Z,16.00
2023-05-16T21:37:34.197Z,16.07
2023-05-16T21:40:01.249Z,16.30
2023-05-16T21:42:28.462Z,15.86
2023-05-16T21:44:55.671Z,15.94
2023-05-16T21:47:23.290Z,15.53
2023-05-16T21:49:50.506Z,15.74
2023-05-16T21:52:17.589Z,15.68
2023-05-16T21:54:44.645Z,15.72
2023-05-16T21:57:11.713Z,15.50
2023-05-16T21:59:38.749Z,15.49
2023-05-16T22:02:05.980Z,15.36
2023-05-16T22:04:33.054Z,15.47
2023-05-16T22:07:00.152Z,15.85
2023-05-16T22:09:27.189Z,16.59
2023-05-16T22:11:54.277Z,15.83
2023-05-16T22:14:21.388Z,15.85
2023-05-16T22:16:48.481Z,15.64
2023-05-16T22:19:15.741Z,15.83
2023-05-16T22:21:42.830Z,15.85
2023-05-16T22:24:09.902Z,15.98
2023-05-16T22:26:36.975Z,15.90
2023-05-16T22:29:04.046Z,16.01
2023-05-16T22:31:31.191Z,16.26
2023-05-16T22:33:58.335Z,16.25
2023-05-16T22:36:25.492Z,16.18
2023-05-16T22:38:52.518Z,16.40
2023-05-16T22:41:19.518Z,16.11
2023-05-16T22:43:46.496Z,16.04
2023-05-16T22:46:13.779Z,16.10
2023-05-16T22:48:41.310Z,15.84
2023-05-16T22:51:08.451Z,15.82
2023-05-16T22:53:35.586Z,15.81
2023-05-16T22:56:02.646Z,15.89
2023-05-16T22:58:29.945Z,15.79
2023-05-16T23:00:58.142Z,15.67
2023-05-16T23:03:25.444Z,15.74
2023-05-16T23:05:52.551Z,15.87
2023-05-16T23:08:19.694Z,15.58
2023-05-16T23:10:46.941Z,15.82
2023-05-16T23:13:14.330Z,15.60
2023-05-16T23:15:41.533Z,15.40
2023-05-16T23:18:08.696Z,15.40
2023-05-16T23:20:35.757Z,15.53
2023-05-16T23:23:02.927Z,15.35
2023-05-16T23:25:30.305Z,15.46
2023-05-16T23:27:57.753Z,15.52
2023-05-16T23:30:25.293Z,15.54
2023-05-16T23:32:52.498Z,15.52
2023-05-16T23:35:19.820Z,15.34
2023-05-16T23:37:46.890Z,15.36
2023-05-16T23:40:14.256Z,15.52
2023-05-16T23:42:41.522Z,15.40
2023-05-16T23:45:09.496Z,15.44
2023-05-16T23:47:36.639Z,15.56
2023-05-16T23:50:04.202Z,15.34
2023-05-16T23:52:31.353Z,15.44
2023-05-16T23:54:58.412Z,15.48
2023-05-16T23:57:25.764Z,15.44
2023-05-16T23:59:52.892Z,15.24
